Rs Mistral — ZDNY3 — position and weather

sailwx.info

Track history (hours):
 
Tides and Currents Weather Stations Pressure Air Temp Water Temp Dewpoint Dewpoint Depression Visibility Wind Speed Wind Dir Waves Ship Positions

Rs Mistral

Last reported at 2018-Jun-23 18:51 UTC. Time now 2018-Jun-24 18:55 UTC.
Position N 34°28' E 011°06'.

Length 127 m; draft 6.6 m.

Type: Cargo ship. MMSI: 236648000.

Date/timePositionNaut miles runAvg speedWind from/ knotsBaromVisibWave heightAir tempDewpointWater temp
2018-Jun-23 18:51N 34°28' E 011°06'410.9
2018-Jun-23 18:30N 34°28' E 011°10'510.7
2018-Jun-23 18:00N 34°30' E 011°16'510.7
2018-Jun-23 17:30N 34°32' E 011°22'510.8
2018-Jun-23 17:00N 34°33' E 011°29'510.8
2018-Jun-23 16:30N 34°34' E 011°35'610.8
2018-Jun-23 15:59N 34°36' E 011°42'510.7
2018-Jun-23 15:30N 34°38' E 011°47'610.8
2018-Jun-23 14:55N 34°42' E 011°54'91 4.0
2018-Jun-22 16:04N 35°50' E 010°39'  
2018-Jun-20 06:59N 38°46' E 003°43'1111.9
2018-Jun-20 06:04N 38°48' E 003°30'112.0
2018-Jun-20 06:00N 38°48' E 003°29'611.9
2018-Jun-20 05:30N 38°50' E 003°21'612.0
2018-Jun-20 05:00N 38°51' E 003°14'711.9
2018-Jun-20 04:27N 38°53' E 003°05'154 5.4
2018-Jun-19 00:03N 39°58' E 000°04'0 0.0
2018-Jun-18 23:57N 39°58' E 000°04'0 0.0
2018-Jun-18 23:30N 39°58' E 000°04'89 6.3
2018-Jun-18 09:14N 38°29' E 000°17'712.3
2018-Jun-18 08:39N 38°23' E 000°12'212.2
2018-Jun-18 08:30N 38°21' E 000°11'612.3
2018-Jun-18 07:59N 38°16' E 000°06'712.2
2018-Jun-18 07:23N 38°10' E 000°01'512.2
2018-Jun-18 07:00N 38°06' W 000°02'611.9
2018-Jun-18 06:30N 38°01' W 000°07'612.0
2018-Jun-18 06:00N 37°56' W 000°11'711.8
2018-Jun-18 05:26N 37°51' W 000°16'511.5
2018-Jun-18 05:00N 37°47' W 000°19'611.4
2018-Jun-18 04:30N 37°42' W 000°23'611.5
2018-Jun-18 04:00N 37°37' W 000°28'611.4
2018-Jun-18 03:30N 37°33' W 000°32'911.2
2018-Jun-18 02:44N 37°27' W 000°40'311.1
2018-Jun-18 02:28N 37°25' W 000°42'511.1
2018-Jun-18 02:00N 37°21' W 000°47'2611.6
2018-Jun-17 23:48N 37°04' W 001°11'18912.1
2018-Jun-17 08:16N 36°03' W 004°53'413.8
2018-Jun-17 08:00N 36°02' W 004°58'714.5
2018-Jun-17 07:30N 36°01' W 005°06'815.3
2018-Jun-17 07:01N 35°60' W 005°16'814.9
2018-Jun-17 06:30N 35°58' W 005°25'1413.1
2018-Jun-17 05:25N 35°54' W 005°42'513.1
2018-Jun-17 05:00N 35°53' W 005°48'  
2018-Jun-14 13:26N 35°58' W 005°34'5 9.8
2018-Jun-14 12:58N 35°59' W 005°29'  
Track history (hours):
 
Tides and Currents Weather Stations Pressure Air Temp Water Temp Dewpoint Dewpoint Depression Visibility Wind Speed Wind Dir Waves Ship Positions

Rs Mistral

Last reported at 2018-Jun-23 18:51 UTC. Time now 2018-Jun-24 18:55 UTC.
Position N 34°28' E 011°06'.

Length 127 m; draft 6.6 m.

Type: Cargo ship. MMSI: 236648000.

Date/timePositionNaut miles runAvg speedWind from/ knotsBaromVisibWave heightAir tempDewpointWater temp
2018-Jun-23 18:51N 34°28' E 011°06'410.9
2018-Jun-23 18:30N 34°28' E 011°10'510.7
2018-Jun-23 18:00N 34°30' E 011°16'510.7
2018-Jun-23 17:30N 34°32' E 011°22'510.8
2018-Jun-23 17:00N 34°33' E 011°29'510.8
2018-Jun-23 16:30N 34°34' E 011°35'610.8
2018-Jun-23 15:59N 34°36' E 011°42'510.7
2018-Jun-23 15:30N 34°38' E 011°47'610.8
2018-Jun-23 14:55N 34°42' E 011°54'91 4.0
2018-Jun-22 16:04N 35°50' E 010°39'  
2018-Jun-20 06:59N 38°46' E 003°43'1111.9
2018-Jun-20 06:04N 38°48' E 003°30'112.0
2018-Jun-20 06:00N 38°48' E 003°29'611.9
2018-Jun-20 05:30N 38°50' E 003°21'612.0
2018-Jun-20 05:00N 38°51' E 003°14'711.9
2018-Jun-20 04:27N 38°53' E 003°05'154 5.4
2018-Jun-19 00:03N 39°58' E 000°04'0 0.0
2018-Jun-18 23:57N 39°58' E 000°04'0 0.0
2018-Jun-18 23:30N 39°58' E 000°04'89 6.3
2018-Jun-18 09:14N 38°29' E 000°17'712.3
2018-Jun-18 08:39N 38°23' E 000°12'212.2
2018-Jun-18 08:30N 38°21' E 000°11'612.3
2018-Jun-18 07:59N 38°16' E 000°06'712.2
2018-Jun-18 07:23N 38°10' E 000°01'512.2
2018-Jun-18 07:00N 38°06' W 000°02'611.9
2018-Jun-18 06:30N 38°01' W 000°07'612.0
2018-Jun-18 06:00N 37°56' W 000°11'711.8
2018-Jun-18 05:26N 37°51' W 000°16'511.5
2018-Jun-18 05:00N 37°47' W 000°19'611.4
2018-Jun-18 04:30N 37°42' W 000°23'611.5
2018-Jun-18 04:00N 37°37' W 000°28'611.4
2018-Jun-18 03:30N 37°33' W 000°32'911.2
2018-Jun-18 02:44N 37°27' W 000°40'311.1
2018-Jun-18 02:28N 37°25' W 000°42'511.1
2018-Jun-18 02:00N 37°21' W 000°47'2611.6
2018-Jun-17 23:48N 37°04' W 001°11'18912.1
2018-Jun-17 08:16N 36°03' W 004°53'413.8
2018-Jun-17 08:00N 36°02' W 004°58'714.5
2018-Jun-17 07:30N 36°01' W 005°06'815.3
2018-Jun-17 07:01N 35°60' W 005°16'814.9
2018-Jun-17 06:30N 35°58' W 005°25'1413.1
2018-Jun-17 05:25N 35°54' W 005°42'513.1
2018-Jun-17 05:00N 35°53' W 005°48'  
2018-Jun-14 13:26N 35°58' W 005°34'5 9.8
2018-Jun-14 12:58N 35°59' W 005°29'  

Dump ship's entire track history